createdAt,value
2018-06-10T00:01:34.817Z,8.97
2018-06-10T00:04:03.584Z,8.77
2018-06-10T00:06:33.246Z,9.77
2018-06-10T00:09:01.814Z,8.73
2018-06-10T00:11:30.424Z,8.47
2018-06-10T00:13:59.045Z,7.83
2018-06-10T00:16:27.761Z,8.57
2018-06-10T00:18:57.735Z,8.40
2018-06-10T00:21:26.333Z,8.70
2018-06-10T00:23:56.653Z,8.17
2018-06-10T00:26:25.621Z,7.07
2018-06-10T00:28:59.614Z,6.07
2018-06-10T00:31:28.430Z,6.13
2018-06-10T00:33:57.740Z,6.00
2018-06-10T00:36:27.592Z,6.57
2018-06-10T00:38:57.189Z,5.13
2018-06-10T00:41:25.891Z,5.40
2018-06-10T00:43:54.523Z,4.93
2018-06-10T00:46:23.160Z,5.33
2018-06-10T00:48:54.351Z,5.27
2018-06-10T00:51:22.953Z,4.77
2018-06-10T00:53:52.188Z,4.77
2018-06-10T00:56:33.425Z,4.83
2018-06-10T00:59:02.441Z,5.33
2018-06-10T01:01:34.166Z,5.17
2018-06-10T01:04:02.937Z,5.30
2018-06-10T01:06:31.560Z,4.90
2018-06-10T01:09:00.145Z,4.80
2018-06-10T01:11:28.782Z,5.00
2018-06-10T01:13:59.437Z,5.13
2018-06-10T01:16:29.108Z,5.37
2018-06-10T01:18:58.878Z,4.77
2018-06-10T01:21:27.613Z,5.27
2018-06-10T01:23:57.427Z,5.67
2018-06-10T01:26:31.960Z,5.77
2018-06-10T01:29:00.615Z,6.27
2018-06-10T01:31:30.207Z,6.13
2018-06-10T01:33:58.886Z,6.53
2018-06-10T01:36:27.894Z,7.03
2018-06-10T01:38:56.514Z,7.03
2018-06-10T01:54:23.484Z,5.80
2018-06-10T01:56:53.394Z,6.30
2018-06-10T01:59:24.172Z,6.03
2018-06-10T02:01:53.472Z,5.40
2018-06-10T02:04:22.459Z,6.45
2018-06-10T02:06:52.137Z,5.67
2018-06-10T02:09:20.895Z,6.13
2018-06-10T02:11:50.323Z,5.93
2018-06-10T02:14:20.063Z,6.07
2018-06-10T02:16:48.696Z,6.97
2018-06-10T02:19:20.430Z,6.80
2018-06-10T02:21:51.282Z,6.83
2018-06-10T02:24:20.621Z,7.40
2018-06-10T02:26:49.817Z,6.93
2018-06-10T02:42:18.889Z,6.77
2018-06-10T02:44:47.757Z,8.10
2018-06-10T02:47:17.779Z,8.23
2018-06-10T02:49:46.485Z,8.30
2018-06-10T02:52:15.176Z,6.87
2018-06-10T02:54:43.918Z,6.20
2018-06-10T02:57:13.838Z,6.47
2018-06-10T02:59:42.431Z,6.10
2018-06-10T03:02:12.057Z,6.67
2018-06-10T03:04:40.957Z,6.03
2018-06-10T03:07:10.769Z,5.70
2018-06-10T03:09:41.369Z,6.00
2018-06-10T03:12:11.924Z,5.90
2018-06-10T03:14:42.224Z,6.17
2018-06-10T03:17:11.412Z,6.43
2018-06-10T03:19:42.106Z,6.67
2018-06-10T03:22:11.856Z,6.57
2018-06-10T03:24:41.044Z,6.50
2018-06-10T03:27:10.291Z,7.10
2018-06-10T03:29:38.883Z,7.53
2018-06-10T03:32:10.972Z,7.17
2018-06-10T03:34:39.581Z,6.83
2018-06-10T03:37:09.554Z,6.87
2018-06-10T03:52:36.599Z,7.27
2018-06-10T03:55:05.222Z,8.03
2018-06-10T03:57:37.090Z,7.80
2018-06-10T04:00:05.823Z,8.30
2018-06-10T04:02:34.461Z,9.00
2018-06-10T04:05:03.216Z,9.10
2018-06-10T04:07:32.923Z,8.50
2018-06-10T04:10:01.559Z,8.93
2018-06-10T04:12:30.844Z,8.27
2018-06-10T04:14:59.865Z,8.23
2018-06-10T04:17:34.937Z,8.17
2018-06-10T04:20:03.602Z,7.20
2018-06-10T04:22:32.611Z,7.40
2018-06-10T04:25:02.361Z,7.53
2018-06-10T04:27:31.501Z,6.33
2018-06-10T04:30:00.208Z,5.40
2018-06-10T04:32:28.891Z,6.20
2018-06-10T04:34:57.489Z,4.97
2018-06-10T04:37:26.133Z,5.20
2018-06-10T04:39:56.810Z,5.20
2018-06-10T04:42:25.502Z,5.57
2018-06-10T04:44:54.638Z,4.70
2018-06-10T04:47:23.400Z,5.10
2018-06-10T04:49:52.012Z,4.53
2018-06-10T04:52:21.618Z,4.53
2018-06-10T04:54:50.235Z,4.93
2018-06-10T04:57:18.854Z,4.40
2018-06-10T04:59:47.535Z,4.70
2018-06-10T05:02:16.225Z,4.80
2018-06-10T05:04:45.976Z,4.67
2018-06-10T05:07:14.717Z,4.50
2018-06-10T05:09:43.481Z,4.90
2018-06-10T05:12:14.138Z,4.40
2018-06-10T05:14:44.878Z,4.70
2018-06-10T05:17:13.579Z,5.45
2018-06-10T05:19:42.312Z,5.37
2018-06-10T05:22:13.146Z,4.62
2018-06-10T05:24:41.742Z,5.50
2018-06-10T05:27:10.455Z,5.22
2018-06-10T05:29:41.204Z,5.78
2018-06-10T05:32:12.336Z,5.78
2018-06-10T05:34:41.130Z,6.22
2018-06-10T05:37:10.835Z,6.80
2018-06-10T05:52:40.721Z,7.30
2018-06-10T05:55:10.517Z,10.53
2018-06-10T05:57:41.133Z,9.87
2018-06-10T06:00:10.862Z,10.37
2018-06-10T06:02:39.496Z,11.57
2018-06-10T06:05:09.436Z,13.43
2018-06-10T06:07:38.026Z,13.23
2018-06-10T06:10:06.844Z,12.93
2018-06-10T06:12:36.888Z,12.40
2018-06-10T06:15:06.551Z,13.33
2018-06-10T06:17:35.175Z,12.23
2018-06-10T06:20:03.994Z,12.00
2018-06-10T06:22:32.689Z,13.60
2018-06-10T06:25:01.302Z,13.23
2018-06-10T06:27:30.575Z,12.20
2018-06-10T06:29:59.301Z,12.10
2018-06-10T06:32:28.904Z,11.30
2018-06-10T06:34:57.532Z,10.57
2018-06-10T06:37:27.482Z,10.83
2018-06-10T06:39:56.145Z,10.57
2018-06-10T06:42:25.911Z,9.10
2018-06-10T06:44:54.688Z,10.33
2018-06-10T06:47:23.269Z,9.80
2018-06-10T06:49:53.168Z,9.90
2018-06-10T06:52:21.438Z,9.87
2018-06-10T06:54:50.045Z,9.63
2018-06-10T06:57:18.734Z,10.27
2018-06-10T06:59:47.373Z,9.85
2018-06-10T07:02:17.115Z,9.67
2018-06-10T07:04:45.825Z,9.23
2018-06-10T07:07:14.519Z,10.23
2018-06-10T07:09:42.829Z,10.40
2018-06-10T07:12:12.526Z,9.20
2018-06-10T07:14:41.187Z,10.30
2018-06-10T07:17:10.799Z,8.53
2018-06-10T07:19:39.406Z,10.00
2018-06-10T07:22:09.161Z,9.68
2018-06-10T07:24:37.998Z,10.07
2018-06-10T07:27:06.720Z,10.03
2018-06-10T07:42:35.791Z,9.90
2018-06-10T07:45:05.545Z,11.67
2018-06-10T07:47:34.244Z,10.87
2018-06-10T07:50:03.088Z,10.47
2018-06-10T07:52:31.852Z,10.87
2018-06-10T07:55:00.558Z,12.03
2018-06-10T07:57:29.158Z,11.43
2018-06-10T07:59:58.324Z,11.93
2018-06-10T08:02:26.976Z,10.20
2018-06-10T08:04:55.600Z,11.20
2018-06-10T08:20:28.560Z,11.87
2018-06-10T08:22:57.180Z,12.83
2018-06-10T08:25:25.753Z,12.53
2018-06-10T08:27:54.962Z,11.67
2018-06-10T08:30:23.760Z,12.23
2018-06-10T08:32:52.397Z,12.47
2018-06-10T08:35:23.435Z,12.03
2018-06-10T08:37:52.023Z,12.17
2018-06-10T08:40:22.677Z,11.80
2018-06-10T08:42:51.865Z,11.17
2018-06-10T08:45:22.599Z,11.43
2018-06-10T08:47:51.231Z,11.40
2018-06-10T08:50:19.835Z,11.00
2018-06-10T08:52:48.653Z,11.17
2018-06-10T08:55:20.026Z,10.43
2018-06-10T08:57:49.248Z,11.10
2018-06-10T09:00:18.607Z,11.23
2018-06-10T09:02:47.313Z,11.57
2018-06-10T09:05:15.937Z,10.30
2018-06-10T09:07:44.595Z,9.67
2018-06-10T09:23:17.503Z,10.60
2018-06-10T09:25:46.090Z,7.00
2018-06-10T09:28:14.739Z,7.77
2018-06-10T09:30:44.498Z,7.17
2018-06-10T09:33:13.094Z,7.07
2018-06-10T09:35:42.983Z,7.07
2018-06-10T09:38:12.598Z,7.93
2018-06-10T09:40:42.203Z,7.77
2018-06-10T09:43:13.151Z,7.60
2018-06-10T09:45:41.735Z,7.07
2018-06-10T09:48:11.839Z,7.27
2018-06-10T09:50:40.569Z,6.73
2018-06-10T09:53:09.313Z,6.90
2018-06-10T09:55:38.184Z,6.93
2018-06-10T09:58:06.728Z,6.40
2018-06-10T10:00:35.438Z,6.17
2018-06-10T10:03:05.054Z,6.20
2018-06-10T10:05:33.728Z,6.00
2018-06-10T10:08:02.313Z,6.23
2018-06-10T10:10:31.909Z,6.30
2018-06-10T10:13:00.790Z,6.40
2018-06-10T10:15:29.387Z,6.70
2018-06-10T10:17:58.854Z,6.43
2018-06-10T10:20:28.590Z,6.53
2018-06-10T10:22:57.219Z,6.40
2018-06-10T10:25:25.856Z,6.47
2018-06-10T10:27:56.166Z,5.67
2018-06-10T10:30:24.767Z,5.97
2018-06-10T10:32:55.480Z,6.13
2018-06-10T10:35:25.348Z,5.90
2018-06-10T10:37:55.015Z,5.90
2018-06-10T10:53:28.898Z,5.97
2018-06-10T10:55:57.518Z,6.23
2018-06-10T11:11:30.335Z,6.20
2018-06-10T11:13:58.997Z,5.77
2018-06-10T11:16:27.761Z,5.80
2018-06-10T11:18:56.381Z,5.83
2018-06-10T11:21:26.014Z,6.20
2018-06-10T11:23:55.276Z,6.50
2018-06-10T11:26:24.184Z,6.20
2018-06-10T11:28:52.500Z,6.17
2018-06-10T11:31:21.115Z,6.03
2018-06-10T11:33:50.506Z,5.80
2018-06-10T11:36:20.158Z,6.13
2018-06-10T11:38:48.809Z,6.13
2018-06-10T11:41:17.427Z,6.23
2018-06-10T11:43:46.109Z,6.10
2018-06-10T11:46:14.791Z,5.60
2018-06-10T11:48:44.585Z,5.40
2018-06-10T11:51:15.148Z,5.30
2018-06-10T11:53:43.724Z,5.73
2018-06-10T11:56:13.658Z,5.50
2018-06-10T11:58:42.275Z,5.62
2018-06-10T12:01:12.490Z,5.28
2018-06-10T12:03:42.092Z,5.37
2018-06-10T12:19:09.640Z,5.40
2018-06-10T12:21:39.251Z,5.63
2018-06-10T12:24:07.815Z,5.57
2018-06-10T12:26:36.463Z,6.10
2018-06-10T12:29:05.297Z,5.28
2018-06-10T12:31:33.870Z,5.08
2018-06-10T12:34:02.544Z,5.40
2018-06-10T12:36:31.128Z,5.43
2018-06-10T12:39:03.471Z,5.50
2018-06-10T12:41:32.176Z,5.72
2018-06-10T12:44:02.134Z,5.65
2018-06-10T12:46:32.836Z,5.87
2018-06-10T12:49:03.502Z,5.67
2018-06-10T12:51:34.279Z,5.53
2018-06-10T12:54:02.880Z,5.27
2018-06-10T12:56:34.388Z,5.90
2018-06-10T12:59:03.097Z,5.80
2018-06-10T13:01:31.731Z,5.40
2018-06-10T13:04:00.402Z,5.90
2018-06-10T13:06:29.518Z,5.70
2018-06-10T13:21:57.639Z,5.53
2018-06-10T13:24:27.960Z,5.30
2018-06-10T13:26:56.602Z,5.20
2018-06-10T13:29:25.884Z,5.03
2018-06-10T13:31:54.548Z,5.10
2018-06-10T13:34:23.234Z,4.67
2018-06-10T13:36:52.707Z,4.30
2018-06-10T13:39:21.611Z,4.40
2018-06-10T13:41:50.201Z,4.70
2018-06-10T13:44:18.859Z,4.80
2018-06-10T13:46:47.548Z,4.85
2018-06-10T13:49:16.515Z,4.37
2018-06-10T13:51:46.286Z,4.70
2018-06-10T13:54:16.607Z,4.47
2018-06-10T13:56:45.235Z,4.70
2018-06-10T13:59:14.040Z,4.63
2018-06-10T14:01:42.695Z,4.10
2018-06-10T14:04:13.629Z,4.67
2018-06-10T14:06:42.324Z,4.30
2018-06-10T14:09:10.946Z,4.05
2018-06-10T14:11:39.607Z,4.25
2018-06-10T14:14:11.284Z,4.40
2018-06-10T14:16:40.093Z,3.80
2018-06-10T14:19:08.765Z,3.98
2018-06-10T14:21:38.608Z,4.03
2018-06-10T14:24:08.287Z,4.00
2018-06-10T14:26:37.893Z,3.72
2018-06-10T14:29:12.010Z,4.17
2018-06-10T14:44:40.215Z,4.00
2018-06-10T14:47:09.854Z,3.52
2018-06-10T14:49:38.596Z,3.22
2018-06-10T14:52:07.253Z,4.00
2018-06-10T14:54:36.998Z,3.30
2018-06-10T14:57:07.126Z,3.85
2018-06-10T14:59:35.783Z,3.60
2018-06-10T15:02:05.473Z,3.90
2018-06-10T15:04:34.077Z,3.50
2018-06-10T15:07:03.587Z,3.55
2018-06-10T15:09:32.178Z,3.65
2018-06-10T15:12:00.814Z,3.40
2018-06-10T15:14:31.085Z,3.95
2018-06-10T15:17:00.021Z,4.15
2018-06-10T15:19:29.595Z,3.60
2018-06-10T15:21:59.331Z,3.62
2018-06-10T15:24:28.733Z,3.72
2018-06-10T15:26:57.713Z,3.58
2018-06-10T15:29:27.147Z,3.58
2018-06-10T15:31:56.446Z,3.27
2018-06-10T15:34:25.074Z,3.45
2018-06-10T15:36:53.783Z,3.52
2018-06-10T15:39:23.406Z,3.33
2018-06-10T15:41:52.509Z,3.50
2018-06-10T15:44:21.266Z,3.17
2018-06-10T15:46:49.947Z,3.62
2018-06-10T15:49:19.596Z,3.52
2018-06-10T15:51:48.302Z,3.60
2018-06-10T15:54:16.924Z,3.45
2018-06-10T15:56:45.606Z,3.37
2018-06-10T15:59:14.863Z,3.77
2018-06-10T16:01:45.179Z,2.87
2018-06-10T16:04:16.215Z,3.52
2018-06-10T16:06:44.814Z,3.55
2018-06-10T16:09:14.571Z,3.40
2018-06-10T16:24:42.565Z,3.55
2018-06-10T16:27:13.168Z,3.70
2018-06-10T16:29:42.928Z,3.22
2018-06-10T16:32:12.839Z,3.30
2018-06-10T16:34:43.458Z,3.15
2018-06-10T16:37:13.256Z,3.40
2018-06-10T16:39:41.925Z,3.12
2018-06-10T16:42:13.123Z,3.10
2018-06-10T16:44:42.157Z,3.65
2018-06-10T16:47:10.833Z,2.90
2018-06-10T16:49:39.466Z,3.10
2018-06-10T16:52:09.525Z,3.20
2018-06-10T16:54:39.173Z,2.80
2018-06-10T16:57:08.549Z,2.65
2018-06-10T16:59:39.344Z,2.52
2018-06-10T17:02:09.762Z,2.90
2018-06-10T17:17:38.594Z,2.55
2018-06-10T17:20:09.386Z,3.00
2018-06-10T17:22:41.272Z,2.70
2018-06-10T17:25:11.490Z,2.85
2018-06-10T17:27:40.122Z,3.00
2018-06-10T17:30:09.211Z,2.58
2018-06-10T17:32:38.384Z,2.77
2018-06-10T17:35:07.691Z,2.62
2018-06-10T17:37:38.385Z,3.77
2018-06-10T17:40:07.830Z,4.05
2018-06-10T17:42:39.159Z,3.50
2018-06-10T17:45:10.695Z,3.25
2018-06-10T17:47:40.671Z,3.20
2018-06-10T17:50:10.432Z,2.90
2018-06-10T17:52:40.159Z,2.60
2018-06-10T18:08:14.567Z,2.80
2018-06-10T18:10:43.203Z,4.40
2018-06-10T18:13:11.866Z,3.90
2018-06-10T18:15:42.493Z,3.95
2018-06-10T18:18:12.223Z,4.12
2018-06-10T18:20:41.869Z,4.45
2018-06-10T18:23:10.725Z,4.15
2018-06-10T18:25:43.092Z,4.35
2018-06-10T18:28:13.216Z,4.80
2018-06-10T18:30:44.131Z,4.95
2018-06-10T18:33:15.293Z,3.98
2018-06-10T18:35:46.617Z,4.37
2018-06-10T18:38:15.318Z,4.08
2018-06-10T18:40:44.305Z,3.58
2018-06-10T18:43:13.207Z,4.67
2018-06-10T18:45:41.807Z,3.75
2018-06-10T18:48:12.351Z,3.30
2018-06-10T18:50:41.030Z,3.70
2018-06-10T18:53:11.609Z,3.33
2018-06-10T18:55:41.578Z,3.83
2018-06-10T18:58:14.066Z,3.67
2018-06-10T19:00:42.735Z,3.43
2018-06-10T19:03:14.451Z,3.80
2018-06-10T19:05:46.510Z,3.87
2018-06-10T19:08:16.158Z,4.10
2018-06-10T19:10:46.818Z,4.00
2018-06-10T19:13:16.542Z,3.93
2018-06-10T19:15:48.219Z,4.40
2018-06-10T19:18:18.060Z,3.83
2018-06-10T19:20:47.305Z,4.10
2018-06-10T19:23:15.951Z,3.53
2018-06-10T19:25:45.693Z,4.07
2018-06-10T19:28:16.352Z,4.00
2018-06-10T19:30:47.082Z,4.00
2018-06-10T19:33:15.714Z,4.30
2018-06-10T19:35:44.419Z,4.30
2018-06-10T19:38:13.270Z,4.13
2018-06-10T19:40:43.413Z,4.70
2018-06-10T19:43:14.528Z,4.50
2018-06-10T19:45:44.484Z,4.60
2018-06-10T19:48:15.106Z,4.03
2018-06-10T19:50:45.657Z,4.40
2018-06-10T19:53:17.668Z,4.73
2018-06-10T19:55:46.797Z,4.50
2018-06-10T19:58:17.165Z,3.60
2018-06-10T20:00:46.094Z,4.03
2018-06-10T20:03:15.802Z,4.50
2018-06-10T20:05:44.538Z,4.67
2018-06-10T20:21:13.547Z,4.73
2018-06-10T20:23:43.633Z,4.47
2018-06-10T20:26:14.531Z,4.30
2018-06-10T20:28:48.537Z,4.93
2018-06-10T20:31:18.224Z,4.17
2018-06-10T20:46:45.623Z,4.17
2018-06-10T20:49:14.289Z,4.23
2018-06-10T20:51:51.342Z,4.60
2018-06-10T20:54:20.353Z,4.63
2018-06-10T21:09:52.581Z,4.20
2018-06-10T21:12:21.250Z,4.10
2018-06-10T21:14:50.995Z,4.60
2018-06-10T21:30:18.073Z,4.20
2018-06-10T21:32:48.853Z,4.97
2018-06-10T21:35:17.478Z,4.73
2018-06-10T21:37:49.156Z,4.60
2018-06-10T21:40:19.958Z,4.20
2018-06-10T21:42:50.964Z,4.57
2018-06-10T21:45:20.338Z,4.10
2018-06-10T21:47:57.763Z,4.13
2018-06-10T22:03:25.956Z,4.17
2018-06-10T22:05:54.628Z,4.10
2018-06-10T22:08:23.317Z,3.87
2018-06-10T22:10:54.099Z,3.93
2018-06-10T22:13:22.744Z,3.70
2018-06-10T22:15:52.702Z,3.57
2018-06-10T22:31:22.724Z,3.97
2018-06-10T22:33:52.515Z,3.83
2018-06-10T22:36:25.311Z,3.70
2018-06-10T22:38:54.960Z,4.33
2018-06-10T22:41:25.758Z,3.97
2018-06-10T22:43:55.850Z,4.13
2018-06-10T22:46:28.149Z,4.23
2018-06-10T23:01:55.908Z,3.77
2018-06-10T23:04:24.652Z,4.47
2018-06-10T23:06:53.498Z,4.00
2018-06-10T23:09:22.301Z,4.60
2018-06-10T23:11:52.811Z,4.50
2018-06-10T23:14:23.894Z,4.47
2018-06-10T23:16:52.689Z,5.27
2018-06-10T23:19:22.871Z,4.87
2018-06-10T23:21:51.639Z,4.60
2018-06-10T23:24:21.782Z,4.67
2018-06-10T23:26:52.013Z,5.00
2018-06-10T23:42:21.090Z,5.30
2018-06-10T23:44:52.208Z,5.20
2018-06-10T23:47:24.340Z,4.93
2018-06-10T23:49:55.502Z,4.83
2018-06-10T23:52:24.188Z,5.00
2018-06-10T23:54:54.146Z,4.40
2018-06-10T23:57:22.836Z,4.90
2018-06-10T23:59:52.846Z,4.83
